sensor_id;sensor_type;location;lat;lon;timestamp;temperature;humidity
47514;DHT22;33951;51.988;5.910;2023-04-03T04:02:12;3.50;99.90
47514;DHT22;33951;51.988;5.910;2023-04-03T04:04:42;3.50;99.90
47514;DHT22;33951;51.988;5.910;2023-04-03T04:07:08;3.30;99.90
47514;DHT22;33951;51.988;5.910;2023-04-03T04:09:34;3.40;99.90
47514;DHT22;33951;51.988;5.910;2023-04-03T04:12:16;3.30;99.90
47514;DHT22;33951;51.988;5.910;2023-04-03T04:14:45;3.30;99.90
47514;DHT22;33951;51.988;5.910;2023-04-03T04:17:19;3.20;99.90
47514;DHT22;33951;51.988;5.910;2023-04-03T04:19:54;3.10;99.90
47514;DHT22;33951;51.988;5.910;2023-04-03T04:22:19;3.10;99.90
47514;DHT22;33951;51.988;5.910;2023-04-03T04:24:48;3.30;99.90
47514;DHT22;33951;51.988;5.910;2023-04-03T04:27:17;3.20;99.90
47514;DHT22;33951;51.988;5.910;2023-04-03T04:29:42;3.20;99.90
47514;DHT22;33951;51.988;5.910;2023-04-03T04:32:08;3.10;99.90
47514;DHT22;33951;51.988;5.910;2023-04-03T04:34:34;3.10;99.90
47514;DHT22;33951;51.988;5.910;2023-04-03T04:37:00;3.00;99.90
47514;DHT22;33951;51.988;5.910;2023-04-03T04:39:29;3.10;99.90
47514;DHT22;33951;51.988;5.910;2023-04-03T04:41:55;3.00;99.90
47514;DHT22;33951;51.988;5.910;2023-04-03T04:44:21;3.00;99.90
47514;DHT22;33951;51.988;5.910;2023-04-03T04:46:46;2.90;99.90
47514;DHT22;33951;51.988;5.910;2023-04-03T04:49:17;2.90;99.90
47514;DHT22;33951;51.988;5.910;2023-04-03T04:51:46;3.10;99.90
47514;DHT22;33951;51.988;5.910;2023-04-03T04:54:11;3.00;99.90
47514;DHT22;33951;51.988;5.910;2023-04-03T04:56:37;2.90;99.90
47514;DHT22;33951;51.988;5.910;2023-04-03T04:59:06;2.90;99.90
47514;DHT22;33951;51.988;5.910;2023-04-03T05:01:32;2.90;99.90
47514;DHT22;33951;51.988;5.910;2023-04-03T05:03:57;2.90;99.90
47514;DHT22;33951;51.988;5.910;2023-04-03T05:06:23;2.90;99.90
47514;DHT22;33951;51.988;5.910;2023-04-03T05:08:49;2.80;99.90
47514;DHT22;33951;51.988;5.910;2023-04-03T05:11:18;2.80;99.90
47514;DHT22;33951;51.988;5.910;2023-04-03T05:13:43;2.70;99.90
47514;DHT22;33951;51.988;5.910;2023-04-03T05:16:18;2.70;99.90
47514;DHT22;33951;51.988;5.910;2023-04-03T05:18:43;2.70;99.90
47514;DHT22;33951;51.988;5.910;2023-04-03T05:21:14;2.70;99.90
47514;DHT22;33951;51.988;5.910;2023-04-03T05:23:40;2.80;99.90
47514;DHT22;33951;51.988;5.910;2023-04-03T05:26:10;2.80;99.90
47514;DHT22;33951;51.988;5.910;2023-04-03T05:28:36;2.60;99.90
47514;DHT22;33951;51.988;5.910;2023-04-03T05:31:02;2.50;99.90
47514;DHT22;33951;51.988;5.910;2023-04-03T05:33:30;2.70;99.90
47514;DHT22;33951;51.988;5.910;2023-04-03T05:36:01;2.70;99.90
47514;DHT22;33951;51.988;5.910;2023-04-03T05:38:29;2.60;99.90
47514;DHT22;33951;51.988;5.910;2023-04-03T05:41:07;2.60;99.90
47514;DHT22;33951;51.988;5.910;2023-04-03T05:43:42;2.50;99.90
47514;DHT22;33951;51.988;5.910;2023-04-03T05:46:18;2.50;99.90
47514;DHT22;33951;51.988;5.910;2023-04-03T05:48:47;2.50;99.90
47514;DHT22;33951;51.988;5.910;2023-04-03T05:51:22;2.50;99.90
47514;DHT22;33951;51.988;5.910;2023-04-03T05:53:54;2.50;99.90
47514;DHT22;33951;51.988;5.910;2023-04-03T05:56:21;2.50;99.90
47514;DHT22;33951;51.988;5.910;2023-04-03T05:58:49;2.50;99.90
47514;DHT22;33951;51.988;5.910;2023-04-03T06:01:18;2.50;99.90
47514;DHT22;33951;51.988;5.910;2023-04-03T06:03:47;2.60;99.90
47514;DHT22;33951;51.988;5.910;2023-04-03T06:06:18;2.60;99.90
47514;DHT22;33951;51.988;5.910;2023-04-03T06:08:44;2.50;99.90
47514;DHT22;33951;51.988;5.910;2023-04-03T06:11:12;2.70;99.90
47514;DHT22;33951;51.988;5.910;2023-04-03T06:13:37;2.60;99.90
47514;DHT22;33951;51.988;5.910;2023-04-03T06:16:04;2.70;99.90
47514;DHT22;33951;51.988;5.910;2023-04-03T06:18:30;2.60;99.90
47514;DHT22;33951;51.988;5.910;2023-04-03T06:20:56;2.70;99.90
47514;DHT22;33951;51.988;5.910;2023-04-03T06:23:23;2.70;99.90
47514;DHT22;33951;51.988;5.910;2023-04-03T06:25:51;2.70;99.90
47514;DHT22;33951;51.988;5.910;2023-04-03T06:28:17;2.70;99.90
47514;DHT22;33951;51.988;5.910;2023-04-03T06:30:56;2.80;99.90
47514;DHT22;33951;51.988;5.910;2023-04-03T06:33:31;2.80;99.90
47514;DHT22;33951;51.988;5.910;2023-04-03T06:36:03;2.90;99.90
47514;DHT22;33951;51.988;5.910;2023-04-03T06:38:47;2.90;99.90
47514;DHT22;33951;51.988;5.910;2023-04-03T06:41:21;2.80;99.90
47514;DHT22;33951;51.988;5.910;2023-04-03T06:43:47;2.80;99.90
47514;DHT22;33951;51.988;5.910;2023-04-03T06:46:21;2.90;99.90
47514;DHT22;33951;51.988;5.910;2023-04-03T06:48:56;3.00;99.90
47514;DHT22;33951;51.988;5.910;2023-04-03T06:51:34;3.00;99.90
47514;DHT22;33951;51.988;5.910;2023-04-03T06:54:47;3.10;99.90
47514;DHT22;33951;51.988;5.910;2023-04-03T06:57:25;3.10;99.90
47514;DHT22;33951;51.988;5.910;2023-04-03T06:59:54;3.20;99.90
47514;DHT22;33951;51.988;5.910;2023-04-03T07:02:30;3.30;99.90
47514;DHT22;33951;51.988;5.910;2023-04-03T07:05:24;3.30;99.90
47514;DHT22;33951;51.988;5.910;2023-04-03T07:08:09;3.30;99.90
47514;DHT22;33951;51.988;5.910;2023-04-03T07:14:04;3.30;99.90
47514;DHT22;33951;51.988;5.910;2023-04-03T07:16:46;3.20;99.90
47514;DHT22;33951;51.988;5.910;2023-04-03T07:22:25;3.30;99.90
47514;DHT22;33951;51.988;5.910;2023-04-03T07:24:56;3.40;99.90
47514;DHT22;33951;51.988;5.910;2023-04-03T07:27:35;3.50;99.90
47514;DHT22;33951;51.988;5.910;2023-04-03T07:33:18;3.60;99.90
47514;DHT22;33951;51.988;5.910;2023-04-03T07:36:30;3.70;99.90
47514;DHT22;33951;51.988;5.910;2023-04-03T07:44:50;3.80;99.90
47514;DHT22;33951;51.988;5.910;2023-04-03T07:47:22;3.90;99.90
47514;DHT22;33951;51.988;5.910;2023-04-03T07:49:53;4.00;99.90
47514;DHT22;33951;51.988;5.910;2023-04-03T07:52:40;4.00;99.90
47514;DHT22;33951;51.988;5.910;2023-04-03T07:55:12;4.00;99.90
47514;DHT22;33951;51.988;5.910;2023-04-03T07:57:57;4.10;99.90
47514;DHT22;33951;51.988;5.910;2023-04-03T08:00:23;4.20;99.90
47514;DHT22;33951;51.988;5.910;2023-04-03T08:03:02;4.30;99.90
47514;DHT22;33951;51.988;5.910;2023-04-03T08:05:30;4.40;99.90
47514;DHT22;33951;51.988;5.910;2023-04-03T08:08:17;4.50;99.90
47514;DHT22;33951;51.988;5.910;2023-04-03T08:11:03;4.60;99.90
47514;DHT22;33951;51.988;5.910;2023-04-03T08:13:35;4.60;99.90
47514;DHT22;33951;51.988;5.910;2023-04-03T08:16:22;4.60;99.90
47514;DHT22;33951;51.988;5.910;2023-04-03T08:18:51;4.70;99.90
47514;DHT22;33951;51.988;5.910;2023-04-03T08:21:25;4.80;99.90
47514;DHT22;33951;51.988;5.910;2023-04-03T08:23:51;4.80;99.90
47514;DHT22;33951;51.988;5.910;2023-04-03T08:26:19;5.00;99.90
47514;DHT22;33951;51.988;5.910;2023-04-03T08:28:57;5.00;99.90
47514;DHT22;33951;51.988;5.910;2023-04-03T08:31:39;5.10;99.90
47514;DHT22;33951;51.988;5.910;2023-04-03T08:34:14;5.20;99.90
47514;DHT22;33951;51.988;5.910;2023-04-03T08:36:40;5.30;99.90
47514;DHT22;33951;51.988;5.910;2023-04-03T08:39:12;5.40;99.90
47514;DHT22;33951;51.988;5.910;2023-04-03T08:45:03;5.50;99.90
47514;DHT22;33951;51.988;5.910;2023-04-03T08:48:11;5.60;99.90
47514;DHT22;33951;51.988;5.910;2023-04-03T08:50:43;5.70;99.90
47514;DHT22;33951;51.988;5.910;2023-04-03T08:53:34;5.70;99.90
47514;DHT22;33951;51.988;5.910;2023-04-03T08:56:15;5.80;99.90
47514;DHT22;33951;51.988;5.910;2023-04-03T08:59:00;5.90;99.90
47514;DHT22;33951;51.988;5.910;2023-04-03T09:01:45;6.00;99.90
47514;DHT22;33951;51.988;5.910;2023-04-03T09:04:36;6.00;99.90
47514;DHT22;33951;51.988;5.910;2023-04-03T09:07:36;6.10;99.90
47514;DHT22;33951;51.988;5.910;2023-04-03T09:10:24;6.20;99.90
47514;DHT22;33951;51.988;5.910;2023-04-03T09:13:44;6.40;99.90
47514;DHT22;33951;51.988;5.910;2023-04-03T09:16:50;6.60;99.90
47514;DHT22;33951;51.988;5.910;2023-04-03T09:25:27;6.70;99.90
47514;DHT22;33951;51.988;5.910;2023-04-03T09:28:13;6.80;99.90
47514;DHT22;33951;51.988;5.910;2023-04-03T09:30:55;7.00;99.90
47514;DHT22;33951;51.988;5.910;2023-04-03T09:33:29;7.00;99.90
47514;DHT22;33951;51.988;5.910;2023-04-03T09:36:40;7.10;99.40
47514;DHT22;33951;51.988;5.910;2023-04-03T09:39:25;7.30;99.10
47514;DHT22;33951;51.988;5.910;2023-04-03T09:42:19;7.40;99.00
47514;DHT22;33951;51.988;5.910;2023-04-03T09:44:55;7.40;98.30
47514;DHT22;33951;51.988;5.910;2023-04-03T09:47:25;7.50;98.10
47514;DHT22;33951;51.988;5.910;2023-04-03T09:50:18;7.60;97.70
47514;DHT22;33951;51.988;5.910;2023-04-03T09:52:52;7.70;97.70
47514;DHT22;33951;51.988;5.910;2023-04-03T09:55:41;7.70;97.00
47514;DHT22;33951;51.988;5.910;2023-04-03T09:58:39;7.70;95.80
47514;DHT22;33951;51.988;5.910;2023-04-03T10:04:11;7.80;95.60
47514;DHT22;33951;51.988;5.910;2023-04-03T10:06:38;8.10;96.10
47514;DHT22;33951;51.988;5.910;2023-04-03T10:09:26;8.30;95.60
47514;DHT22;33951;51.988;5.910;2023-04-03T10:12:11;8.50;96.00
47514;DHT22;33951;51.988;5.910;2023-04-03T10:14:40;8.70;95.60
47514;DHT22;33951;51.988;5.910;2023-04-03T10:23:05;9.30;95.70
47514;DHT22;33951;51.988;5.910;2023-04-03T10:25:47;9.70;97.30
47514;DHT22;33951;51.988;5.910;2023-04-03T10:28:50;10.10;96.20
47514;DHT22;33951;51.988;5.910;2023-04-03T10:34:28;10.50;94.90
47514;DHT22;33951;51.988;5.910;2023-04-03T10:36:58;10.60;95.10
47514;DHT22;33951;51.988;5.910;2023-04-03T10:51:23;11.60;95.90
47514;DHT22;33951;51.988;5.910;2023-04-03T10:54:05;11.80;94.00
47514;DHT22;33951;51.988;5.910;2023-04-03T10:57:01;11.90;93.90
47514;DHT22;33951;51.988;5.910;2023-04-03T10:59:51;12.20;95.40
47514;DHT22;33951;51.988;5.910;2023-04-03T11:02:38;12.20;93.20
47514;DHT22;33951;51.988;5.910;2023-04-03T11:07:56;12.40;91.60
47514;DHT22;33951;51.988;5.910;2023-04-03T11:13:13;12.70;92.20
47514;DHT22;33951;51.988;5.910;2023-04-03T11:15:44;13.00;93.10
47514;DHT22;33951;51.988;5.910;2023-04-03T11:18:28;13.30;91.80
47514;DHT22;33951;51.988;5.910;2023-04-03T11:21:21;13.40;91.70
47514;DHT22;33951;51.988;5.910;2023-04-03T11:23:56;13.60;90.80
47514;DHT22;33951;51.988;5.910;2023-04-03T11:26:31;13.60;89.40
47514;DHT22;33951;51.988;5.910;2023-04-03T11:29:09;13.70;90.30
47514;DHT22;33951;51.988;5.910;2023-04-03T11:34:47;13.90;91.20
47514;DHT22;33951;51.988;5.910;2023-04-03T11:37:47;14.00;87.80
47514;DHT22;33951;51.988;5.910;2023-04-03T11:48:02;14.50;89.70
47514;DHT22;33951;51.988;5.910;2023-04-03T11:53:35;14.70;85.00
47514;DHT22;33951;51.988;5.910;2023-04-03T11:59:19;15.00;87.80
47514;DHT22;33951;51.988;5.910;2023-04-03T12:01:54;15.10;86.00
47514;DHT22;33951;51.988;5.910;2023-04-03T12:04:25;15.10;85.40
47514;DHT22;33951;51.988;5.910;2023-04-03T12:12:35;15.50;84.50
47514;DHT22;33951;51.988;5.910;2023-04-03T12:15:41;15.50;86.30
47514;DHT22;33951;51.988;5.910;2023-04-03T12:19:24;15.60;83.60
47514;DHT22;33951;51.988;5.910;2023-04-03T12:27:24;15.70;85.30
47514;DHT22;33951;51.988;5.910;2023-04-03T12:30:04;15.90;85.80
47514;DHT22;33951;51.988;5.910;2023-04-03T12:33:03;16.20;84.90
47514;DHT22;33951;51.988;5.910;2023-04-03T12:36:11;16.40;84.40
47514;DHT22;33951;51.988;5.910;2023-04-03T12:39:01;16.20;82.10
47514;DHT22;33951;51.988;5.910;2023-04-03T12:41:53;16.20;82.00
47514;DHT22;33951;51.988;5.910;2023-04-03T12:50:22;16.20;81.80
47514;DHT22;33951;51.988;5.910;2023-04-03T12:53:19;16.20;81.60
47514;DHT22;33951;51.988;5.910;2023-04-03T12:56:26;16.30;81.90
47514;DHT22;33951;51.988;5.910;2023-04-03T13:02:22;16.40;81.40
47514;DHT22;33951;51.988;5.910;2023-04-03T13:04:50;16.20;81.50
47514;DHT22;33951;51.988;5.910;2023-04-03T13:07:23;16.20;81.20
47514;DHT22;33951;51.988;5.910;2023-04-03T13:10:20;16.10;79.60
47514;DHT22;33951;51.988;5.910;2023-04-03T13:12:59;16.10;81.40
47514;DHT22;33951;51.988;5.910;2023-04-03T13:15:48;16.40;81.40
47514;DHT22;33951;51.988;5.910;2023-04-03T13:18:34;16.50;80.30
47514;DHT22;33951;51.988;5.910;2023-04-03T13:21:38;16.50;80.80
47514;DHT22;33951;51.988;5.910;2023-04-03T13:24:04;16.60;80.00
47514;DHT22;33951;51.988;5.910;2023-04-03T13:26:35;16.60;80.90
47514;DHT22;33951;51.988;5.910;2023-04-03T13:29:40;16.50;79.40
47514;DHT22;33951;51.988;5.910;2023-04-03T13:32:26;16.60;81.00
47514;DHT22;33951;51.988;5.910;2023-04-03T13:34:53;16.70;80.20
47514;DHT22;33951;51.988;5.910;2023-04-03T13:42:36;17.00;78.40
47514;DHT22;33951;51.988;5.910;2023-04-03T13:45:24;16.90;78.60
47514;DHT22;33951;51.988;5.910;2023-04-03T13:48:08;17.00;79.70
47514;DHT22;33951;51.988;5.910;2023-04-03T13:53:53;17.00;78.60
47514;DHT22;33951;51.988;5.910;2023-04-03T14:02:09;17.40;78.20
47514;DHT22;33951;51.988;5.910;2023-04-03T14:07:13;17.40;77.40
47514;DHT22;33951;51.988;5.910;2023-04-03T14:09:42;17.50;79.10
47514;DHT22;33951;51.988;5.910;2023-04-03T14:12:15;17.70;77.70
47514;DHT22;33951;51.988;5.910;2023-04-03T14:14:47;17.70;77.50
47514;DHT22;33951;51.988;5.910;2023-04-03T14:17:24;17.80;77.70
47514;DHT22;33951;51.988;5.910;2023-04-03T14:19:58;17.80;76.80
47514;DHT22;33951;51.988;5.910;2023-04-03T14:22:35;17.60;77.30
47514;DHT22;33951;51.988;5.910;2023-04-03T14:25:02;17.60;78.00
47514;DHT22;33951;51.988;5.910;2023-04-03T14:27:36;17.70;78.40
47514;DHT22;33951;51.988;5.910;2023-04-03T14:30:27;17.70;76.70
47514;DHT22;33951;51.988;5.910;2023-04-03T14:33:05;17.50;78.40
47514;DHT22;33951;51.988;5.910;2023-04-03T14:35:34;17.40;78.20
47514;DHT22;33951;51.988;5.910;2023-04-03T14:38:05;17.20;78.20
47514;DHT22;33951;51.988;5.910;2023-04-03T14:40:44;17.30;77.40
47514;DHT22;33951;51.988;5.910;2023-04-03T14:43:30;17.40;76.90
47514;DHT22;33951;51.988;5.910;2023-04-03T14:46:18;17.20;77.40
47514;DHT22;33951;51.988;5.910;2023-04-03T14:48:53;17.00;77.10
47514;DHT22;33951;51.988;5.910;2023-04-03T14:51:32;16.90;77.80
47514;DHT22;33951;51.988;5.910;2023-04-03T14:54:19;16.60;78.40
47514;DHT22;33951;51.988;5.910;2023-04-03T14:59:50;16.60;79.70
47514;DHT22;33951;51.988;5.910;2023-04-03T15:02:34;16.40;79.70
47514;DHT22;33951;51.988;5.910;2023-04-03T15:05:17;16.40;80.60
47514;DHT22;33951;51.988;5.910;2023-04-03T15:10:49;15.90;79.50
47514;DHT22;33951;51.988;5.910;2023-04-03T15:13:25;15.90;80.80
47514;DHT22;33951;51.988;5.910;2023-04-03T15:16:11;15.40;80.40
47514;DHT22;33951;51.988;5.910;2023-04-03T15:19:07;15.40;80.70
47514;DHT22;33951;51.988;5.910;2023-04-03T15:21:57;15.30;81.30
47514;DHT22;33951;51.988;5.910;2023-04-03T15:24:52;15.20;80.70
47514;DHT22;33951;51.988;5.910;2023-04-03T15:27:26;15.20;80.20
47514;DHT22;33951;51.988;5.910;2023-04-03T15:30:00;15.30;80.00
47514;DHT22;33951;51.988;5.910;2023-04-03T15:32:33;15.10;80.70
47514;DHT22;33951;51.988;5.910;2023-04-03T15:35:02;14.80;80.30
47514;DHT22;33951;51.988;5.910;2023-04-03T15:37:38;14.90;80.50
47514;DHT22;33951;51.988;5.910;2023-04-03T15:40:04;14.60;81.40
47514;DHT22;33951;51.988;5.910;2023-04-03T15:42:34;14.60;81.90
47514;DHT22;33951;51.988;5.910;2023-04-03T15:45:02;14.60;81.40
47514;DHT22;33951;51.988;5.910;2023-04-03T15:47:36;14.60;82.20
47514;DHT22;33951;51.988;5.910;2023-04-03T15:50:14;14.60;82.50
47514;DHT22;33951;51.988;5.910;2023-04-03T15:52:48;14.50;83.50
47514;DHT22;33951;51.988;5.910;2023-04-03T15:55:28;14.10;81.60
47514;DHT22;33951;51.988;5.910;2023-04-03T15:57:59;13.90;83.00
47514;DHT22;33951;51.988;5.910;2023-04-03T16:00:30;14.00;82.20
47514;DHT22;33951;51.988;5.910;2023-04-03T16:03:10;14.10;82.30
47514;DHT22;33951;51.988;5.910;2023-04-03T16:05:50;14.10;82.60
47514;DHT22;33951;51.988;5.910;2023-04-03T16:08:39;13.80;82.70
47514;DHT22;33951;51.988;5.910;2023-04-03T16:11:05;13.90;83.00
47514;DHT22;33951;51.988;5.910;2023-04-03T16:13:31;13.50;82.60
47514;DHT22;33951;51.988;5.910;2023-04-03T16:16:00;13.40;84.00
47514;DHT22;33951;51.988;5.910;2023-04-03T16:19:03;13.40;84.70
47514;DHT22;33951;51.988;5.910;2023-04-03T16:21:35;13.50;84.40
47514;DHT22;33951;51.988;5.910;2023-04-03T16:24:13;13.40;83.80
47514;DHT22;33951;51.988;5.910;2023-04-03T16:26:42;13.40;84.00
47514;DHT22;33951;51.988;5.910;2023-04-03T16:29:26;13.40;84.10
47514;DHT22;33951;51.988;5.910;2023-04-03T16:31:59;13.40;84.10
47514;DHT22;33951;51.988;5.910;2023-04-03T16:34:32;13.50;84.00
47514;DHT22;33951;51.988;5.910;2023-04-03T16:37:08;13.60;83.80
47514;DHT22;33951;51.988;5.910;2023-04-03T16:39:52;13.60;83.90
47514;DHT22;33951;51.988;5.910;2023-04-03T16:42:28;13.50;84.20
47514;DHT22;33951;51.988;5.910;2023-04-03T16:44:59;13.50;84.40
47514;DHT22;33951;51.988;5.910;2023-04-03T16:47:38;13.60;83.90
47514;DHT22;33951;51.988;5.910;2023-04-03T16:50:08;13.70;83.90
47514;DHT22;33951;51.988;5.910;2023-04-03T16:52:37;13.50;84.40
47514;DHT22;33951;51.988;5.910;2023-04-03T16:55:24;13.60;84.20
47514;DHT22;33951;51.988;5.910;2023-04-03T16:58:09;13.80;84.40
47514;DHT22;33951;51.988;5.910;2023-04-03T17:00:37;13.90;84.70
47514;DHT22;33951;51.988;5.910;2023-04-03T17:03:08;13.90;84.00
47514;DHT22;33951;51.988;5.910;2023-04-03T17:05:37;13.90;83.30
47514;DHT22;33951;51.988;5.910;2023-04-03T17:08:10;13.70;83.90
47514;DHT22;33951;51.988;5.910;2023-04-03T17:10:44;13.40;83.50
47514;DHT22;33951;51.988;5.910;2023-04-03T17:13:33;13.30;84.30
47514;DHT22;33951;51.988;5.910;2023-04-03T17:16:02;13.10;84.90
47514;DHT22;33951;51.988;5.910;2023-04-03T17:18:30;13.20;84.90
47514;DHT22;33951;51.988;5.910;2023-04-03T17:24:05;12.60;85.30
47514;DHT22;33951;51.988;5.910;2023-04-03T17:26:57;12.40;86.30
47514;DHT22;33951;51.988;5.910;2023-04-03T17:30:17;12.40;86.30
47514;DHT22;33951;51.988;5.910;2023-04-03T17:39:15;11.40;87.90
47514;DHT22;33951;51.988;5.910;2023-04-03T17:41:41;11.20;88.30
47514;DHT22;33951;51.988;5.910;2023-04-03T17:44:23;11.00;88.50
47514;DHT22;33951;51.988;5.910;2023-04-03T17:47:01;10.80;89.00
47514;DHT22;33951;51.988;5.910;2023-04-03T17:49:49;10.60;89.70
47514;DHT22;33951;51.988;5.910;2023-04-03T17:55:16;10.60;90.00
47514;DHT22;33951;51.988;5.910;2023-04-03T17:57:48;10.50;90.10
47514;DHT22;33951;51.988;5.910;2023-04-03T18:00:50;10.40;90.40
47514;DHT22;33951;51.988;5.910;2023-04-03T18:03:16;10.20;90.70
47514;DHT22;33951;51.988;5.910;2023-04-03T18:06:03;9.90;90.70
47514;DHT22;33951;51.988;5.910;2023-04-03T18:08:36;9.60;91.20
47514;DHT22;33951;51.988;5.910;2023-04-03T18:11:03;9.50;91.20
47514;DHT22;33951;51.988;5.910;2023-04-03T18:13:29;9.50;91.20
47514;DHT22;33951;51.988;5.910;2023-04-03T18:15:54;9.60;91.20
47514;DHT22;33951;51.988;5.910;2023-04-03T18:18:22;9.60;91.60
47514;DHT22;33951;51.988;5.910;2023-04-03T18:20:48;9.50;91.60
47514;DHT22;33951;51.988;5.910;2023-04-03T18:23:16;9.40;92.00
47514;DHT22;33951;51.988;5.910;2023-04-03T18:25:48;9.30;92.00
47514;DHT22;33951;51.988;5.910;2023-04-03T18:28:13;9.30;91.90
47514;DHT22;33951;51.988;5.910;2023-04-03T18:30:41;9.20;92.20
47514;DHT22;33951;51.988;5.910;2023-04-03T18:33:07;9.20;92.30
47514;DHT22;33951;51.988;5.910;2023-04-03T18:35:32;9.00;92.60
47514;DHT22;33951;51.988;5.910;2023-04-03T18:37:58;9.00;92.60
47514;DHT22;33951;51.988;5.910;2023-04-03T18:40:24;8.90;92.80
47514;DHT22;33951;51.988;5.910;2023-04-03T18:42:49;8.90;93.00
47514;DHT22;33951;51.988;5.910;2023-04-03T18:45:21;8.70;93.20
47514;DHT22;33951;51.988;5.910;2023-04-03T18:47:47;8.60;93.50
47514;DHT22;33951;51.988;5.910;2023-04-03T18:50:13;8.50;93.70
47514;DHT22;33951;51.988;5.910;2023-04-03T18:52:41;8.50;93.60
47514;DHT22;33951;51.988;5.910;2023-04-03T18:55:07;8.50;93.70
47514;DHT22;33951;51.988;5.910;2023-04-03T18:57:35;8.50;93.90
47514;DHT22;33951;51.988;5.910;2023-04-03T19:00:04;8.30;94.10
47514;DHT22;33951;51.988;5.910;2023-04-03T19:02:30;8.30;94.10
47514;DHT22;33951;51.988;5.910;2023-04-03T19:05:06;8.20;94.10
47514;DHT22;33951;51.988;5.910;2023-04-03T19:07:32;8.20;94.40
47514;DHT22;33951;51.988;5.910;2023-04-03T19:09:59;8.10;94.70
47514;DHT22;33951;51.988;5.910;2023-04-03T19:12:25;7.90;94.80
47514;DHT22;33951;51.988;5.910;2023-04-03T19:14:51;7.90;94.80
47514;DHT22;33951;51.988;5.910;2023-04-03T19:17:17;7.90;95.10
47514;DHT22;33951;51.988;5.910;2023-04-03T19:19:43;7.80;95.30
47514;DHT22;33951;51.988;5.910;2023-04-03T19:22:08;7.80;95.30
47514;DHT22;33951;51.988;5.910;2023-04-03T19:24:35;7.80;95.50
47514;DHT22;33951;51.988;5.910;2023-04-03T19:27:01;7.70;95.60
47514;DHT22;33951;51.988;5.910;2023-04-03T19:29:27;7.60;95.70
47514;DHT22;33951;51.988;5.910;2023-04-03T19:31:53;7.60;96.00
47514;DHT22;33951;51.988;5.910;2023-04-03T19:34:18;7.50;96.00
47514;DHT22;33951;51.988;5.910;2023-04-03T19:36:44;7.50;95.90
47514;DHT22;33951;51.988;5.910;2023-04-03T19:39:10;7.40;96.00
47514;DHT22;33951;51.988;5.910;2023-04-03T19:41:36;7.30;96.10
47514;DHT22;33951;51.988;5.910;2023-04-03T19:44:05;7.20;96.30
47514;DHT22;33951;51.988;5.910;2023-04-03T19:46:32;7.20;96.60
47514;DHT22;33951;51.988;5.910;2023-04-03T19:49:01;7.10;96.60
47514;DHT22;33951;51.988;5.910;2023-04-03T19:51:26;7.00;96.80
47514;DHT22;33951;51.988;5.910;2023-04-03T19:53:52;7.00;97.00
47514;DHT22;33951;51.988;5.910;2023-04-03T19:56:18;7.00;96.90
47514;DHT22;33951;51.988;5.910;2023-04-03T19:58:46;6.90;97.00
47514;DHT22;33951;51.988;5.910;2023-04-03T20:01:19;6.90;97.20
47514;DHT22;33951;51.988;5.910;2023-04-03T20:03:45;6.80;97.30
47514;DHT22;33951;51.988;5.910;2023-04-03T20:06:12;6.60;97.20
47514;DHT22;33951;51.988;5.910;2023-04-03T20:08:38;6.60;97.60
47514;DHT22;33951;51.988;5.910;2023-04-03T20:11:04;6.60;97.60
47514;DHT22;33951;51.988;5.910;2023-04-03T20:13:30;6.50;97.60
47514;DHT22;33951;51.988;5.910;2023-04-03T20:16:02;6.50;97.70
47514;DHT22;33951;51.988;5.910;2023-04-03T20:18:29;6.60;97.70
47514;DHT22;33951;51.988;5.910;2023-04-03T20:21:00;6.50;97.80
47514;DHT22;33951;51.988;5.910;2023-04-03T20:23:26;6.40;97.70
47514;DHT22;33951;51.988;5.910;2023-04-03T20:25:54;6.40;97.90
47514;DHT22;33951;51.988;5.910;2023-04-03T20:28:23;6.40;98.00
47514;DHT22;33951;51.988;5.910;2023-04-03T20:30:50;6.40;98.10
47514;DHT22;33951;51.988;5.910;2023-04-03T20:33:20;6.40;98.30
47514;DHT22;33951;51.988;5.910;2023-04-03T20:35:46;6.30;98.30
47514;DHT22;33951;51.988;5.910;2023-04-03T20:38:13;6.20;98.50
47514;DHT22;33951;51.988;5.910;2023-04-03T20:40:39;6.30;98.40
47514;DHT22;33951;51.988;5.910;2023-04-03T20:43:05;6.20;98.50
47514;DHT22;33951;51.988;5.910;2023-04-03T20:45:31;6.10;98.70
47514;DHT22;33951;51.988;5.910;2023-04-03T20:47:58;6.10;98.70
47514;DHT22;33951;51.988;5.910;2023-04-03T20:50:26;6.10;98.60
47514;DHT22;33951;51.988;5.910;2023-04-03T20:52:53;6.00;99.00
47514;DHT22;33951;51.988;5.910;2023-04-03T20:55:20;6.00;99.10
47514;DHT22;33951;51.988;5.910;2023-04-03T20:57:45;6.00;99.10
47514;DHT22;33951;51.988;5.910;2023-04-03T21:00:12;6.00;99.00
47514;DHT22;33951;51.988;5.910;2023-04-03T21:02:50;6.00;99.00
47514;DHT22;33951;51.988;5.910;2023-04-03T21:05:30;6.00;99.10
47514;DHT22;33951;51.988;5.910;2023-04-03T21:19:46;5.70;99.50
47514;DHT22;33951;51.988;5.910;2023-04-03T21:22:14;5.70;99.50
47514;DHT22;33951;51.988;5.910;2023-04-03T21:24:41;5.80;99.60
47514;DHT22;33951;51.988;5.910;2023-04-03T21:27:07;5.80;99.80
47514;DHT22;33951;51.988;5.910;2023-04-03T21:29:35;5.80;99.90
47514;DHT22;33951;51.988;5.910;2023-04-03T21:32:01;5.70;99.80
47514;DHT22;33951;51.988;5.910;2023-04-03T21:34:28;5.70;99.90
47514;DHT22;33951;51.988;5.910;2023-04-03T21:37:04;5.70;99.90
47514;DHT22;33951;51.988;5.910;2023-04-03T21:39:30;5.60;99.90
47514;DHT22;33951;51.988;5.910;2023-04-03T21:41:56;5.50;99.90
47514;DHT22;33951;51.988;5.910;2023-04-03T21:44:22;5.70;99.90
47514;DHT22;33951;51.988;5.910;2023-04-03T21:46:49;5.50;99.90
47514;DHT22;33951;51.988;5.910;2023-04-03T21:49:22;5.50;99.90
47514;DHT22;33951;51.988;5.910;2023-04-03T21:51:48;5.40;99.90
47514;DHT22;33951;51.988;5.910;2023-04-03T21:54:15;5.60;99.90
47514;DHT22;33951;51.988;5.910;2023-04-03T21:56:41;5.60;99.90
47514;DHT22;33951;51.988;5.910;2023-04-03T21:59:07;5.50;99.90
47514;DHT22;33951;51.988;5.910;2023-04-03T22:01:33;5.50;99.90
47514;DHT22;33951;51.988;5.910;2023-04-03T22:03:58;5.50;99.90
47514;DHT22;33951;51.988;5.910;2023-04-03T22:06:34;5.40;99.90
47514;DHT22;33951;51.988;5.910;2023-04-03T22:09:08;5.50;99.90
47514;DHT22;33951;51.988;5.910;2023-04-03T22:11:34;5.40;99.90
47514;DHT22;33951;51.988;5.910;2023-04-03T22:14:19;5.30;99.90
47514;DHT22;33951;51.988;5.910;2023-04-03T22:16:50;5.20;99.90
47514;DHT22;33951;51.988;5.910;2023-04-03T22:19:21;5.20;99.90
47514;DHT22;33951;51.988;5.910;2023-04-03T22:21:59;5.30;99.90
47514;DHT22;33951;51.988;5.910;2023-04-03T22:24:30;5.30;99.90
47514;DHT22;33951;51.988;5.910;2023-04-03T22:30:21;5.30;99.90
47514;DHT22;33951;51.988;5.910;2023-04-03T22:36:37;5.20;99.90
47514;DHT22;33951;51.988;5.910;2023-04-03T22:39:17;5.20;99.90
47514;DHT22;33951;51.988;5.910;2023-04-03T22:45:10;5.20;99.90
47514;DHT22;33951;51.988;5.910;2023-04-03T22:47:44;5.10;99.90
47514;DHT22;33951;51.988;5.910;2023-04-03T22:50:28;5.10;99.90
47514;DHT22;33951;51.988;5.910;2023-04-03T22:53:07;5.00;99.90
47514;DHT22;33951;51.988;5.910;2023-04-03T22:55:41;5.10;99.90
47514;DHT22;33951;51.988;5.910;2023-04-03T22:58:40;5.00;99.90